sensor_id;sensor_type;location;lat;lon;timestamp;temperature;humidity
51719;DHT22;37795;53.236;5.704;2023-08-06T00:01:31;14.50;83.80
51719;DHT22;37795;53.236;5.704;2023-08-06T00:03:57;14.50;83.80
51719;DHT22;37795;53.236;5.704;2023-08-06T00:06:24;14.40;83.60
51719;DHT22;37795;53.236;5.704;2023-08-06T00:08:50;14.40;83.90
51719;DHT22;37795;53.236;5.704;2023-08-06T00:11:15;14.40;83.90
51719;DHT22;37795;53.236;5.704;2023-08-06T00:13:41;14.40;83.80
51719;DHT22;37795;53.236;5.704;2023-08-06T00:16:13;14.40;83.90
51719;DHT22;37795;53.236;5.704;2023-08-06T00:18:40;14.30;83.80
51719;DHT22;37795;53.236;5.704;2023-08-06T00:21:05;14.30;84.20
51719;DHT22;37795;53.236;5.704;2023-08-06T00:23:31;14.30;83.70
51719;DHT22;37795;53.236;5.704;2023-08-06T00:25:57;14.30;84.00
51719;DHT22;37795;53.236;5.704;2023-08-06T00:28:22;14.30;84.00
51719;DHT22;37795;53.236;5.704;2023-08-06T00:30:55;14.30;84.20
51719;DHT22;37795;53.236;5.704;2023-08-06T00:33:22;14.40;84.20
51719;DHT22;37795;53.236;5.704;2023-08-06T00:35:48;14.30;84.00
51719;DHT22;37795;53.236;5.704;2023-08-06T00:38:13;14.40;84.00
51719;DHT22;37795;53.236;5.704;2023-08-06T00:40:39;14.40;83.90
51719;DHT22;37795;53.236;5.704;2023-08-06T00:43:05;14.40;84.00
51719;DHT22;37795;53.236;5.704;2023-08-06T00:45:34;14.40;83.90
51719;DHT22;37795;53.236;5.704;2023-08-06T00:48:00;14.40;83.90
51719;DHT22;37795;53.236;5.704;2023-08-06T00:50:26;14.40;83.90
51719;DHT22;37795;53.236;5.704;2023-08-06T00:52:52;14.40;83.90
51719;DHT22;37795;53.236;5.704;2023-08-06T00:55:18;14.40;84.10
51719;DHT22;37795;53.236;5.704;2023-08-06T00:57:44;14.30;84.00
51719;DHT22;37795;53.236;5.704;2023-08-06T01:00:10;14.40;84.30
51719;DHT22;37795;53.236;5.704;2023-08-06T01:02:37;14.40;84.30
51719;DHT22;37795;53.236;5.704;2023-08-06T01:05:03;14.40;84.40
51719;DHT22;37795;53.236;5.704;2023-08-06T01:15:35;14.40;84.10
51719;DHT22;37795;53.236;5.704;2023-08-06T01:18:03;14.40;84.10
51719;DHT22;37795;53.236;5.704;2023-08-06T01:20:31;14.40;84.00
51719;DHT22;37795;53.236;5.704;2023-08-06T01:22:56;14.40;84.30
51719;DHT22;37795;53.236;5.704;2023-08-06T01:25:35;14.40;83.80
51719;DHT22;37795;53.236;5.704;2023-08-06T01:31:15;14.40;84.10
51719;DHT22;37795;53.236;5.704;2023-08-06T01:33:45;14.30;84.40
51719;DHT22;37795;53.236;5.704;2023-08-06T01:36:11;14.40;84.40
51719;DHT22;37795;53.236;5.704;2023-08-06T01:38:37;14.40;84.40
51719;DHT22;37795;53.236;5.704;2023-08-06T01:41:03;14.40;84.50
51719;DHT22;37795;53.236;5.704;2023-08-06T01:43:29;14.50;84.40
51719;DHT22;37795;53.236;5.704;2023-08-06T01:45:54;14.50;84.40
51719;DHT22;37795;53.236;5.704;2023-08-06T01:48:20;14.50;84.40
51719;DHT22;37795;53.236;5.704;2023-08-06T01:50:46;14.50;84.50
51719;DHT22;37795;53.236;5.704;2023-08-06T01:53:11;14.50;84.50
51719;DHT22;37795;53.236;5.704;2023-08-06T01:55:37;14.50;84.20
51719;DHT22;37795;53.236;5.704;2023-08-06T01:58:03;14.40;84.20
51719;DHT22;37795;53.236;5.704;2023-08-06T02:00:28;14.40;84.00
51719;DHT22;37795;53.236;5.704;2023-08-06T02:02:54;14.40;84.00
51719;DHT22;37795;53.236;5.704;2023-08-06T02:05:20;14.50;84.20
51719;DHT22;37795;53.236;5.704;2023-08-06T02:07:45;14.40;84.00
51719;DHT22;37795;53.236;5.704;2023-08-06T02:10:11;14.40;83.90
51719;DHT22;37795;53.236;5.704;2023-08-06T02:12:37;14.40;84.30
51719;DHT22;37795;53.236;5.704;2023-08-06T02:15:03;14.40;84.10
51719;DHT22;37795;53.236;5.704;2023-08-06T02:17:29;14.40;84.00
51719;DHT22;37795;53.236;5.704;2023-08-06T02:19:54;14.40;84.20
51719;DHT22;37795;53.236;5.704;2023-08-06T02:22:20;14.40;84.10
51719;DHT22;37795;53.236;5.704;2023-08-06T02:24:46;14.40;84.00
51719;DHT22;37795;53.236;5.704;2023-08-06T02:27:11;14.40;84.00
51719;DHT22;37795;53.236;5.704;2023-08-06T02:29:40;14.40;84.00
51719;DHT22;37795;53.236;5.704;2023-08-06T02:32:06;14.40;84.10
51719;DHT22;37795;53.236;5.704;2023-08-06T02:34:32;14.40;84.10
51719;DHT22;37795;53.236;5.704;2023-08-06T02:36:58;14.40;83.90
51719;DHT22;37795;53.236;5.704;2023-08-06T02:39:23;14.30;83.80
51719;DHT22;37795;53.236;5.704;2023-08-06T02:41:49;14.20;83.40
51719;DHT22;37795;53.236;5.704;2023-08-06T02:44:15;14.20;84.20
51719;DHT22;37795;53.236;5.704;2023-08-06T02:46:40;14.30;84.10
51719;DHT22;37795;53.236;5.704;2023-08-06T02:49:06;14.30;84.10
51719;DHT22;37795;53.236;5.704;2023-08-06T02:51:32;14.30;83.90
51719;DHT22;37795;53.236;5.704;2023-08-06T02:53:58;14.20;84.00
51719;DHT22;37795;53.236;5.704;2023-08-06T02:56:23;14.20;84.00
51719;DHT22;37795;53.236;5.704;2023-08-06T02:58:49;14.30;84.20
51719;DHT22;37795;53.236;5.704;2023-08-06T03:01:14;14.30;84.20
51719;DHT22;37795;53.236;5.704;2023-08-06T03:03:40;14.40;84.10
51719;DHT22;37795;53.236;5.704;2023-08-06T03:06:06;14.40;84.00
51719;DHT22;37795;53.236;5.704;2023-08-06T03:08:31;14.40;84.00
51719;DHT22;37795;53.236;5.704;2023-08-06T03:10:57;14.50;83.90
51719;DHT22;37795;53.236;5.704;2023-08-06T03:13:23;14.50;83.80
51719;DHT22;37795;53.236;5.704;2023-08-06T03:15:56;14.40;83.90
51719;DHT22;37795;53.236;5.704;2023-08-06T03:18:22;14.50;84.00
51719;DHT22;37795;53.236;5.704;2023-08-06T03:20:48;14.40;83.70
51719;DHT22;37795;53.236;5.704;2023-08-06T03:23:14;14.50;84.10
51719;DHT22;37795;53.236;5.704;2023-08-06T03:25:40;14.50;84.10
51719;DHT22;37795;53.236;5.704;2023-08-06T03:28:06;14.50;84.20
51719;DHT22;37795;53.236;5.704;2023-08-06T03:30:31;14.50;84.00
51719;DHT22;37795;53.236;5.704;2023-08-06T03:32:57;14.40;84.30
51719;DHT22;37795;53.236;5.704;2023-08-06T03:35:23;14.40;84.30
51719;DHT22;37795;53.236;5.704;2023-08-06T03:37:48;14.50;84.60
51719;DHT22;37795;53.236;5.704;2023-08-06T03:40:15;14.50;84.40
51719;DHT22;37795;53.236;5.704;2023-08-06T03:42:41;14.50;84.50
51719;DHT22;37795;53.236;5.704;2023-08-06T03:45:07;14.50;84.50
51719;DHT22;37795;53.236;5.704;2023-08-06T03:47:33;14.50;84.40
51719;DHT22;37795;53.236;5.704;2023-08-06T03:49:58;14.50;84.50
51719;DHT22;37795;53.236;5.704;2023-08-06T03:52:24;14.50;84.30
51719;DHT22;37795;53.236;5.704;2023-08-06T03:54:50;14.50;84.20
51719;DHT22;37795;53.236;5.704;2023-08-06T03:57:15;14.50;84.30
51719;DHT22;37795;53.236;5.704;2023-08-06T03:59:41;14.50;84.10
51719;DHT22;37795;53.236;5.704;2023-08-06T04:02:07;14.40;84.20
51719;DHT22;37795;53.236;5.704;2023-08-06T04:04:32;14.40;84.20
51719;DHT22;37795;53.236;5.704;2023-08-06T04:06:58;14.40;84.00
51719;DHT22;37795;53.236;5.704;2023-08-06T04:09:24;14.40;84.30
51719;DHT22;37795;53.236;5.704;2023-08-06T04:11:49;14.40;84.30
51719;DHT22;37795;53.236;5.704;2023-08-06T04:14:15;14.50;84.20
51719;DHT22;37795;53.236;5.704;2023-08-06T04:16:41;14.40;84.30
51719;DHT22;37795;53.236;5.704;2023-08-06T04:19:06;14.40;84.20
51719;DHT22;37795;53.236;5.704;2023-08-06T04:21:32;14.40;84.40
51719;DHT22;37795;53.236;5.704;2023-08-06T04:23:58;14.50;84.40
51719;DHT22;37795;53.236;5.704;2023-08-06T04:26:23;14.40;84.20
51719;DHT22;37795;53.236;5.704;2023-08-06T04:28:49;14.50;84.40
51719;DHT22;37795;53.236;5.704;2023-08-06T04:31:15;14.50;84.40
51719;DHT22;37795;53.236;5.704;2023-08-06T04:33:40;14.50;84.30
51719;DHT22;37795;53.236;5.704;2023-08-06T04:36:06;14.50;84.40
51719;DHT22;37795;53.236;5.704;2023-08-06T04:38:32;14.50;84.40
51719;DHT22;37795;53.236;5.704;2023-08-06T04:40:58;14.60;84.60
51719;DHT22;37795;53.236;5.704;2023-08-06T04:43:24;14.60;84.70
51719;DHT22;37795;53.236;5.704;2023-08-06T04:45:53;14.60;84.80
51719;DHT22;37795;53.236;5.704;2023-08-06T04:48:20;14.60;84.70
51719;DHT22;37795;53.236;5.704;2023-08-06T04:50:46;14.60;84.60
51719;DHT22;37795;53.236;5.704;2023-08-06T04:53:12;14.60;84.50
51719;DHT22;37795;53.236;5.704;2023-08-06T04:55:38;14.60;84.10
51719;DHT22;37795;53.236;5.704;2023-08-06T04:58:04;14.60;84.30
51719;DHT22;37795;53.236;5.704;2023-08-06T05:00:31;14.60;84.40
51719;DHT22;37795;53.236;5.704;2023-08-06T05:02:56;14.70;84.50
51719;DHT22;37795;53.236;5.704;2023-08-06T05:05:22;14.70;84.30
51719;DHT22;37795;53.236;5.704;2023-08-06T05:07:49;14.80;84.40
51719;DHT22;37795;53.236;5.704;2023-08-06T05:10:16;14.80;84.10
51719;DHT22;37795;53.236;5.704;2023-08-06T05:12:42;14.70;83.90
51719;DHT22;37795;53.236;5.704;2023-08-06T05:15:08;14.70;84.00
51719;DHT22;37795;53.236;5.704;2023-08-06T05:17:33;14.70;84.00
51719;DHT22;37795;53.236;5.704;2023-08-06T05:19:59;14.70;84.20
51719;DHT22;37795;53.236;5.704;2023-08-06T05:22:25;14.80;84.30
51719;DHT22;37795;53.236;5.704;2023-08-06T05:24:51;14.90;84.10
51719;DHT22;37795;53.236;5.704;2023-08-06T05:27:17;14.90;84.00
51719;DHT22;37795;53.236;5.704;2023-08-06T05:29:45;14.90;83.90
51719;DHT22;37795;53.236;5.704;2023-08-06T05:32:11;14.90;84.00
51719;DHT22;37795;53.236;5.704;2023-08-06T05:34:37;14.90;84.10
51719;DHT22;37795;53.236;5.704;2023-08-06T05:37:03;14.90;84.10
51719;DHT22;37795;53.236;5.704;2023-08-06T05:39:29;15.00;84.30
51719;DHT22;37795;53.236;5.704;2023-08-06T05:41:55;15.00;83.90
51719;DHT22;37795;53.236;5.704;2023-08-06T05:44:21;15.10;84.00
51719;DHT22;37795;53.236;5.704;2023-08-06T05:46:47;15.10;83.60
51719;DHT22;37795;53.236;5.704;2023-08-06T05:49:13;15.10;83.70
51719;DHT22;37795;53.236;5.704;2023-08-06T05:51:39;15.10;83.60
51719;DHT22;37795;53.236;5.704;2023-08-06T05:54:05;15.20;83.50
51719;DHT22;37795;53.236;5.704;2023-08-06T05:56:31;15.20;83.30
51719;DHT22;37795;53.236;5.704;2023-08-06T05:58:56;15.20;83.30
51719;DHT22;37795;53.236;5.704;2023-08-06T06:01:22;15.30;83.30
51719;DHT22;37795;53.236;5.704;2023-08-06T06:03:48;15.40;83.20
51719;DHT22;37795;53.236;5.704;2023-08-06T06:06:14;15.40;83.00
51719;DHT22;37795;53.236;5.704;2023-08-06T06:08:40;15.50;83.10
51719;DHT22;37795;53.236;5.704;2023-08-06T06:11:05;15.40;82.60
51719;DHT22;37795;53.236;5.704;2023-08-06T06:13:31;15.50;82.80
51719;DHT22;37795;53.236;5.704;2023-08-06T06:15:57;15.50;82.80
51719;DHT22;37795;53.236;5.704;2023-08-06T06:18:23;15.60;82.80
51719;DHT22;37795;53.236;5.704;2023-08-06T06:20:48;15.70;82.80
51719;DHT22;37795;53.236;5.704;2023-08-06T06:23:14;15.70;82.40
51719;DHT22;37795;53.236;5.704;2023-08-06T06:25:44;15.70;82.50
51719;DHT22;37795;53.236;5.704;2023-08-06T06:28:12;15.80;82.70
51719;DHT22;37795;53.236;5.704;2023-08-06T06:30:37;15.80;82.70
51719;DHT22;37795;53.236;5.704;2023-08-06T06:33:03;15.80;82.30
51719;DHT22;37795;53.236;5.704;2023-08-06T06:35:29;15.90;82.30
51719;DHT22;37795;53.236;5.704;2023-08-06T06:37:55;15.90;82.70
51719;DHT22;37795;53.236;5.704;2023-08-06T06:40:20;15.90;82.90
51719;DHT22;37795;53.236;5.704;2023-08-06T06:42:46;15.90;83.10
51719;DHT22;37795;53.236;5.704;2023-08-06T06:45:12;16.00;82.50
51719;DHT22;37795;53.236;5.704;2023-08-06T06:54:50;16.30;82.80
51719;DHT22;37795;53.236;5.704;2023-08-06T06:57:16;16.10;82.70
51719;DHT22;37795;53.236;5.704;2023-08-06T06:59:41;16.20;82.30
51719;DHT22;37795;53.236;5.704;2023-08-06T07:02:07;16.30;81.80
51719;DHT22;37795;53.236;5.704;2023-08-06T07:04:33;16.40;81.10
51719;DHT22;37795;53.236;5.704;2023-08-06T07:06:58;16.50;80.90
51719;DHT22;37795;53.236;5.704;2023-08-06T07:09:24;16.60;80.70
51719;DHT22;37795;53.236;5.704;2023-08-06T07:11:50;16.50;80.20
51719;DHT22;37795;53.236;5.704;2023-08-06T07:14:16;16.50;79.70
51719;DHT22;37795;53.236;5.704;2023-08-06T07:16:42;16.70;79.90
51719;DHT22;37795;53.236;5.704;2023-08-06T07:19:08;16.80;79.70
51719;DHT22;37795;53.236;5.704;2023-08-06T07:21:33;16.90;79.60
51719;DHT22;37795;53.236;5.704;2023-08-06T07:23:59;16.80;79.00
51719;DHT22;37795;53.236;5.704;2023-08-06T07:26:25;16.90;79.20
51719;DHT22;37795;53.236;5.704;2023-08-06T07:28:51;16.90;79.10
51719;DHT22;37795;53.236;5.704;2023-08-06T07:31:16;17.00;79.20
51719;DHT22;37795;53.236;5.704;2023-08-06T07:33:42;17.10;78.80
51719;DHT22;37795;53.236;5.704;2023-08-06T07:36:10;17.20;78.30
51719;DHT22;37795;53.236;5.704;2023-08-06T07:38:36;17.30;77.90
51719;DHT22;37795;53.236;5.704;2023-08-06T07:41:02;17.20;78.20
51719;DHT22;37795;53.236;5.704;2023-08-06T07:43:28;17.20;77.80
51719;DHT22;37795;53.236;5.704;2023-08-06T07:45:54;17.20;77.80
51719;DHT22;37795;53.236;5.704;2023-08-06T07:48:22;17.30;77.80
51719;DHT22;37795;53.236;5.704;2023-08-06T07:50:52;17.50;77.30
51719;DHT22;37795;53.236;5.704;2023-08-06T07:53:20;17.60;77.60
51719;DHT22;37795;53.236;5.704;2023-08-06T07:55:55;17.70;77.20
51719;DHT22;37795;53.236;5.704;2023-08-06T07:58:21;17.60;77.40
51719;DHT22;37795;53.236;5.704;2023-08-06T08:00:47;17.70;78.20
51719;DHT22;37795;53.236;5.704;2023-08-06T08:03:13;17.60;77.90
51719;DHT22;37795;53.236;5.704;2023-08-06T08:05:40;17.60;77.10
51719;DHT22;37795;53.236;5.704;2023-08-06T08:08:06;17.70;77.60
51719;DHT22;37795;53.236;5.704;2023-08-06T08:10:33;17.80;78.30
51719;DHT22;37795;53.236;5.704;2023-08-06T08:12:59;17.70;78.30
51719;DHT22;37795;53.236;5.704;2023-08-06T08:15:25;17.70;78.70
51719;DHT22;37795;53.236;5.704;2023-08-06T08:17:53;17.80;78.70
51719;DHT22;37795;53.236;5.704;2023-08-06T08:20:19;17.80;78.10
51719;DHT22;37795;53.236;5.704;2023-08-06T08:22:45;17.70;78.50
51719;DHT22;37795;53.236;5.704;2023-08-06T08:25:10;17.80;78.10
51719;DHT22;37795;53.236;5.704;2023-08-06T08:27:36;17.90;78.50
51719;DHT22;37795;53.236;5.704;2023-08-06T08:30:02;18.00;78.40
51719;DHT22;37795;53.236;5.704;2023-08-06T08:32:27;18.00;77.90
51719;DHT22;37795;53.236;5.704;2023-08-06T08:34:53;18.00;77.20
51719;DHT22;37795;53.236;5.704;2023-08-06T08:37:19;18.20;77.40
51719;DHT22;37795;53.236;5.704;2023-08-06T08:39:44;18.20;77.00
51719;DHT22;37795;53.236;5.704;2023-08-06T08:42:10;18.30;75.70
51719;DHT22;37795;53.236;5.704;2023-08-06T08:44:37;18.50;75.20
51719;DHT22;37795;53.236;5.704;2023-08-06T08:47:06;18.40;74.50
51719;DHT22;37795;53.236;5.704;2023-08-06T08:49:32;18.40;74.30
51719;DHT22;37795;53.236;5.704;2023-08-06T08:51:59;18.40;75.10
51719;DHT22;37795;53.236;5.704;2023-08-06T08:54:27;18.50;72.50
51719;DHT22;37795;53.236;5.704;2023-08-06T08:56:54;18.60;71.80
51719;DHT22;37795;53.236;5.704;2023-08-06T08:59:21;18.80;71.90
51719;DHT22;37795;53.236;5.704;2023-08-06T09:01:47;18.80;73.10
51719;DHT22;37795;53.236;5.704;2023-08-06T09:04:16;18.80;73.00
51719;DHT22;37795;53.236;5.704;2023-08-06T09:06:43;19.00;72.00
51719;DHT22;37795;53.236;5.704;2023-08-06T09:09:19;19.10;70.90
51719;DHT22;37795;53.236;5.704;2023-08-06T09:11:48;19.50;71.90
51719;DHT22;37795;53.236;5.704;2023-08-06T09:14:15;19.50;70.50
51719;DHT22;37795;53.236;5.704;2023-08-06T09:16:40;19.30;72.90
51719;DHT22;37795;53.236;5.704;2023-08-06T09:19:10;19.50;72.00
51719;DHT22;37795;53.236;5.704;2023-08-06T09:21:41;19.70;71.30
51719;DHT22;37795;53.236;5.704;2023-08-06T09:24:11;19.60;70.80
51719;DHT22;37795;53.236;5.704;2023-08-06T09:26:37;19.60;72.00
51719;DHT22;37795;53.236;5.704;2023-08-06T09:29:08;19.70;71.00
51719;DHT22;37795;53.236;5.704;2023-08-06T09:31:41;19.70;70.80
51719;DHT22;37795;53.236;5.704;2023-08-06T09:34:21;19.90;70.80
51719;DHT22;37795;53.236;5.704;2023-08-06T09:36:48;19.80;69.80
51719;DHT22;37795;53.236;5.704;2023-08-06T09:39:18;19.80;71.20
51719;DHT22;37795;53.236;5.704;2023-08-06T09:41:44;19.90;72.20
51719;DHT22;37795;53.236;5.704;2023-08-06T09:44:21;19.80;71.50
51719;DHT22;37795;53.236;5.704;2023-08-06T09:46:48;20.10;69.80
51719;DHT22;37795;53.236;5.704;2023-08-06T09:49:15;20.20;70.50
51719;DHT22;37795;53.236;5.704;2023-08-06T09:51:41;20.00;69.90
51719;DHT22;37795;53.236;5.704;2023-08-06T09:54:08;20.30;71.00
51719;DHT22;37795;53.236;5.704;2023-08-06T09:56:37;20.60;70.30
51719;DHT22;37795;53.236;5.704;2023-08-06T09:59:06;20.80;69.40
51719;DHT22;37795;53.236;5.704;2023-08-06T10:01:34;20.90;68.20
51719;DHT22;37795;53.236;5.704;2023-08-06T10:04:02;21.10;68.90
51719;DHT22;37795;53.236;5.704;2023-08-06T10:06:29;20.90;68.60
51719;DHT22;37795;53.236;5.704;2023-08-06T10:08:55;21.30;67.20
51719;DHT22;37795;53.236;5.704;2023-08-06T10:11:24;21.50;69.80
51719;DHT22;37795;53.236;5.704;2023-08-06T10:13:58;21.60;68.40
51719;DHT22;37795;53.236;5.704;2023-08-06T10:16:25;21.80;66.80
51719;DHT22;37795;53.236;5.704;2023-08-06T10:18:52;21.90;66.40
51719;DHT22;37795;53.236;5.704;2023-08-06T10:21:18;21.60;66.50
51719;DHT22;37795;53.236;5.704;2023-08-06T10:23:44;21.40;64.90
51719;DHT22;37795;53.236;5.704;2023-08-06T10:26:09;21.10;66.00
51719;DHT22;37795;53.236;5.704;2023-08-06T10:28:37;21.00;67.70
51719;DHT22;37795;53.236;5.704;2023-08-06T10:31:04;20.80;65.00
51719;DHT22;37795;53.236;5.704;2023-08-06T10:33:44;20.60;64.40
51719;DHT22;37795;53.236;5.704;2023-08-06T10:36:10;20.60;65.30
51719;DHT22;37795;53.236;5.704;2023-08-06T10:38:47;20.60;65.00
51719;DHT22;37795;53.236;5.704;2023-08-06T10:41:29;20.60;66.20
51719;DHT22;37795;53.236;5.704;2023-08-06T10:44:15;20.50;67.20
51719;DHT22;37795;53.236;5.704;2023-08-06T10:46:41;20.00;67.50
51719;DHT22;37795;53.236;5.704;2023-08-06T10:54:54;19.70;69.60
51719;DHT22;37795;53.236;5.704;2023-08-06T10:57:20;19.20;70.40
51719;DHT22;37795;53.236;5.704;2023-08-06T10:59:46;19.00;71.60
51719;DHT22;37795;53.236;5.704;2023-08-06T11:02:12;18.90;70.80
51719;DHT22;37795;53.236;5.704;2023-08-06T11:04:38;19.00;71.30
51719;DHT22;37795;53.236;5.704;2023-08-06T11:07:04;18.90;71.00
51719;DHT22;37795;53.236;5.704;2023-08-06T11:09:32;18.90;70.40
51719;DHT22;37795;53.236;5.704;2023-08-06T11:11:57;18.90;70.70
51719;DHT22;37795;53.236;5.704;2023-08-06T11:14:23;19.00;69.00
51719;DHT22;37795;53.236;5.704;2023-08-06T11:16:50;19.20;70.80
51719;DHT22;37795;53.236;5.704;2023-08-06T11:19:16;19.30;70.30
51719;DHT22;37795;53.236;5.704;2023-08-06T11:21:43;19.30;70.50
51719;DHT22;37795;53.236;5.704;2023-08-06T11:24:12;19.50;70.60
51719;DHT22;37795;53.236;5.704;2023-08-06T11:26:38;19.80;70.20
51719;DHT22;37795;53.236;5.704;2023-08-06T11:29:05;19.90;69.10
51719;DHT22;37795;53.236;5.704;2023-08-06T11:31:31;20.30;68.90
51719;DHT22;37795;53.236;5.704;2023-08-06T11:33:57;20.50;67.80
51719;DHT22;37795;53.236;5.704;2023-08-06T11:36:33;20.70;67.70
51719;DHT22;37795;53.236;5.704;2023-08-06T11:39:00;20.60;67.00
51719;DHT22;37795;53.236;5.704;2023-08-06T11:41:28;20.60;66.00
51719;DHT22;37795;53.236;5.704;2023-08-06T11:43:54;20.80;68.70
51719;DHT22;37795;53.236;5.704;2023-08-06T11:46:19;20.90;65.70
51719;DHT22;37795;53.236;5.704;2023-08-06T11:48:56;20.90;66.70
51719;DHT22;37795;53.236;5.704;2023-08-06T11:51:25;20.90;66.00
51719;DHT22;37795;53.236;5.704;2023-08-06T11:53:57;20.70;68.40
51719;DHT22;37795;53.236;5.704;2023-08-06T11:56:24;20.20;68.80
51719;DHT22;37795;53.236;5.704;2023-08-06T11:58:51;20.10;70.10
51719;DHT22;37795;53.236;5.704;2023-08-06T12:01:18;19.80;70.20
51719;DHT22;37795;53.236;5.704;2023-08-06T12:03:43;19.60;69.30
51719;DHT22;37795;53.236;5.704;2023-08-06T12:06:09;19.60;71.00
51719;DHT22;37795;53.236;5.704;2023-08-06T12:08:35;19.60;71.40
51719;DHT22;37795;53.236;5.704;2023-08-06T12:11:01;19.40;69.90
51719;DHT22;37795;53.236;5.704;2023-08-06T12:13:26;19.20;71.20
51719;DHT22;37795;53.236;5.704;2023-08-06T12:15:54;19.40;71.20
51719;DHT22;37795;53.236;5.704;2023-08-06T12:18:20;19.40;70.10
51719;DHT22;37795;53.236;5.704;2023-08-06T12:20:46;19.40;69.90
51719;DHT22;37795;53.236;5.704;2023-08-06T12:23:11;19.40;70.70
51719;DHT22;37795;53.236;5.704;2023-08-06T12:25:41;19.30;71.00
51719;DHT22;37795;53.236;5.704;2023-08-06T12:28:06;19.40;70.40
51719;DHT22;37795;53.236;5.704;2023-08-06T12:30:33;19.40;71.00
51719;DHT22;37795;53.236;5.704;2023-08-06T12:32:58;19.60;70.80
51719;DHT22;37795;53.236;5.704;2023-08-06T12:35:24;19.50;70.20
51719;DHT22;37795;53.236;5.704;2023-08-06T12:37:51;19.40;69.90
51719;DHT22;37795;53.236;5.704;2023-08-06T12:40:20;19.50;71.00
51719;DHT22;37795;53.236;5.704;2023-08-06T12:42:45;19.50;70.10
51719;DHT22;37795;53.236;5.704;2023-08-06T12:45:11;19.40;69.90
51719;DHT22;37795;53.236;5.704;2023-08-06T12:47:37;19.40;70.00
51719;DHT22;37795;53.236;5.704;2023-08-06T12:50:03;19.40;69.90
51719;DHT22;37795;53.236;5.704;2023-08-06T12:52:29;19.50;70.10
51719;DHT22;37795;53.236;5.704;2023-08-06T12:54:55;19.50;70.40
51719;DHT22;37795;53.236;5.704;2023-08-06T12:57:21;19.40;70.70
51719;DHT22;37795;53.236;5.704;2023-08-06T12:59:46;19.30;70.70
51719;DHT22;37795;53.236;5.704;2023-08-06T13:02:13;19.20;70.30
51719;DHT22;37795;53.236;5.704;2023-08-06T13:04:39;19.30;71.40
51719;DHT22;37795;53.236;5.704;2023-08-06T13:07:05;19.30;71.10
51719;DHT22;37795;53.236;5.704;2023-08-06T13:09:32;19.30;71.40
51719;DHT22;37795;53.236;5.704;2023-08-06T13:11:58;19.50;71.30
51719;DHT22;37795;53.236;5.704;2023-08-06T13:14:25;19.30;70.20
51719;DHT22;37795;53.236;5.704;2023-08-06T13:16:51;19.30;70.20
51719;DHT22;37795;53.236;5.704;2023-08-06T13:19:17;19.30;70.20
51719;DHT22;37795;53.236;5.704;2023-08-06T13:24:11;19.00;71.50
51719;DHT22;37795;53.236;5.704;2023-08-06T13:26:38;19.00;72.10
51719;DHT22;37795;53.236;5.704;2023-08-06T13:29:04;18.90;74.10
51719;DHT22;37795;53.236;5.704;2023-08-06T13:31:30;18.80;74.10
51719;DHT22;37795;53.236;5.704;2023-08-06T13:33:56;18.70;75.20
51719;DHT22;37795;53.236;5.704;2023-08-06T13:36:27;18.50;75.50
51719;DHT22;37795;53.236;5.704;2023-08-06T13:38:52;18.40;76.10
51719;DHT22;37795;53.236;5.704;2023-08-06T13:41:18;18.50;76.40
51719;DHT22;37795;53.236;5.704;2023-08-06T13:43:44;18.40;76.60
51719;DHT22;37795;53.236;5.704;2023-08-06T13:46:11;18.50;76.80
51719;DHT22;37795;53.236;5.704;2023-08-06T13:48:42;18.50;75.30
51719;DHT22;37795;53.236;5.704;2023-08-06T13:51:08;18.70;75.60
51719;DHT22;37795;53.236;5.704;2023-08-06T13:53:34;18.60;75.20
51719;DHT22;37795;53.236;5.704;2023-08-06T13:55:59;18.80;76.00
51719;DHT22;37795;53.236;5.704;2023-08-06T13:58:25;18.90;75.20
51719;DHT22;37795;53.236;5.704;2023-08-06T14:00:52;19.00;75.20
51719;DHT22;37795;53.236;5.704;2023-08-06T14:03:19;18.90;74.20
51719;DHT22;37795;53.236;5.704;2023-08-06T14:05:45;19.20;75.30
51719;DHT22;37795;53.236;5.704;2023-08-06T14:08:11;19.10;73.00
51719;DHT22;37795;53.236;5.704;2023-08-06T14:10:37;19.40;74.30
51719;DHT22;37795;53.236;5.704;2023-08-06T14:13:03;19.30;72.80
51719;DHT22;37795;53.236;5.704;2023-08-06T14:15:28;19.30;72.30
51719;DHT22;37795;53.236;5.704;2023-08-06T14:17:54;19.30;72.90
51719;DHT22;37795;53.236;5.704;2023-08-06T14:20:20;19.40;73.90
51719;DHT22;37795;53.236;5.704;2023-08-06T14:22:45;19.40;72.70
51719;DHT22;37795;53.236;5.704;2023-08-06T14:25:11;19.60;71.70
51719;DHT22;37795;53.236;5.704;2023-08-06T14:27:37;19.60;72.10
51719;DHT22;37795;53.236;5.704;2023-08-06T14:30:06;19.80;71.60
51719;DHT22;37795;53.236;5.704;2023-08-06T14:32:32;19.80;72.00
51719;DHT22;37795;53.236;5.704;2023-08-06T14:34:57;20.00;72.90
51719;DHT22;37795;53.236;5.704;2023-08-06T14:37:25;19.90;72.50
51719;DHT22;37795;53.236;5.704;2023-08-06T14:39:51;20.00;70.60
51719;DHT22;37795;53.236;5.704;2023-08-06T14:42:17;20.00;71.90
51719;DHT22;37795;53.236;5.704;2023-08-06T14:44:43;20.00;70.90
51719;DHT22;37795;53.236;5.704;2023-08-06T14:47:09;20.00;70.80
51719;DHT22;37795;53.236;5.704;2023-08-06T14:49:34;19.80;71.70
51719;DHT22;37795;53.236;5.704;2023-08-06T14:52:00;19.80;70.20
51719;DHT22;37795;53.236;5.704;2023-08-06T14:54:27;19.80;71.30
51719;DHT22;37795;53.236;5.704;2023-08-06T14:56:53;19.60;70.00
51719;DHT22;37795;53.236;5.704;2023-08-06T14:59:19;19.50;70.00
51719;DHT22;37795;53.236;5.704;2023-08-06T15:01:44;19.40;70.00
51719;DHT22;37795;53.236;5.704;2023-08-06T15:04:10;19.40;70.50
51719;DHT22;37795;53.236;5.704;2023-08-06T15:06:36;19.20;70.70
51719;DHT22;37795;53.236;5.704;2023-08-06T15:09:02;19.10;70.60
51719;DHT22;37795;53.236;5.704;2023-08-06T15:11:27;19.10;71.40
51719;DHT22;37795;53.236;5.704;2023-08-06T15:13:53;18.80;71.40
51719;DHT22;37795;53.236;5.704;2023-08-06T15:16:19;18.70;72.00
51719;DHT22;37795;53.236;5.704;2023-08-06T15:18:45;18.60;72.60
51719;DHT22;37795;53.236;5.704;2023-08-06T15:21:11;18.50;72.40
51719;DHT22;37795;53.236;5.704;2023-08-06T15:23:36;18.40;73.40
51719;DHT22;37795;53.236;5.704;2023-08-06T15:26:03;18.30;75.00
51719;DHT22;37795;53.236;5.704;2023-08-06T15:28:29;18.30;75.30
51719;DHT22;37795;53.236;5.704;2023-08-06T15:30:55;18.30;75.20
51719;DHT22;37795;53.236;5.704;2023-08-06T15:33:21;18.20;74.80
51719;DHT22;37795;53.236;5.704;2023-08-06T15:35:47;18.10;74.40
51719;DHT22;37795;53.236;5.704;2023-08-06T15:38:13;18.00;75.10
51719;DHT22;37795;53.236;5.704;2023-08-06T15:40:39;18.00;74.40
51719;DHT22;37795;53.236;5.704;2023-08-06T15:43:05;17.90;74.70
51719;DHT22;37795;53.236;5.704;2023-08-06T15:45:31;17.80;74.50
51719;DHT22;37795;53.236;5.704;2023-08-06T15:47:56;17.70;74.10
51719;DHT22;37795;53.236;5.704;2023-08-06T15:50:22;17.80;74.70
51719;DHT22;37795;53.236;5.704;2023-08-06T15:52:48;17.90;75.20